Time;durP1;ratioP1;P1;durP2;ratioP2;P2;SDS_P1;SDS_P2;PMS_P1;PMS_P2;Temp;Humidity;BMP_temperature;BMP_pressure;BME280_temperature;BME280_humidity;BME280_pressure;Samples;Min_cycle;Max_cycle;Signal;HPM_P1;HPM_P2
2022/07/24 00:00:17;;;;;;;18.85;9.70;;;25.90;82.30;;;;;;4927487;29;20047;-80
2022/07/24 00:02:44;;;;;;;19.35;9.80;;;25.90;81.80;;;;;;4926442;29;20499;-81
2022/07/24 00:05:12;;;;;;;23.67;10.00;;;25.90;83.50;;;;;;4944272;29;20048;-79
2022/07/24 00:07:39;;;;;;;16.08;9.82;;;26.00;81.60;;;;;;4925432;29;20099;-80
2022/07/24 00:10:07;;;;;;;16.35;8.77;;;25.60;82.20;;;;;;4943614;29;20395;-78
2022/07/24 00:12:35;;;;;;;13.32;7.00;;;25.60;83.20;;;;;;4944555;29;20036;-79
2022/07/24 00:15:04;;;;;;;10.48;7.05;;;25.80;77.70;;;;;;4924978;29;20047;-81
2022/07/24 00:17:31;;;;;;;15.43;7.53;;;25.90;78.60;;;;;;4944097;29;20491;-79
2022/07/24 00:19:59;;;;;;;20.35;8.32;;;26.00;77.10;;;;;;4911791;29;20047;-79
2022/07/24 00:22:26;;;;;;;11.40;6.10;;;26.10;78.10;;;;;;4943438;29;20048;-79
2022/07/24 00:24:53;;;;;;;14.30;6.45;;;26.00;78.30;;;;;;4925592;29;20050;-80
2022/07/24 00:27:21;;;;;;;9.57;5.63;;;25.80;75.00;;;;;;4942596;29;20480;-79
2022/07/24 00:29:48;;;;;;;11.65;5.57;;;25.80;75.20;;;;;;4926175;29;20499;-80
2022/07/24 00:32:16;;;;;;;15.60;6.85;;;25.90;75.70;;;;;;4927876;29;20051;-79
2022/07/24 00:34:43;;;;;;;16.38;6.82;;;25.50;78.80;;;;;;4925370;29;20060;-78
2022/07/24 00:37:11;;;;;;;11.52;6.03;;;25.30;78.30;;;;;;4942559;29;20046;-79
2022/07/24 00:39:38;;;;;;;14.73;6.80;;;25.10;79.20;;;;;;4944478;29;20531;-80
2022/07/24 00:42:06;;;;;;;15.85;6.53;;;25.00;78.90;;;;;;4925448;29;20044;-80
2022/07/24 00:44:33;;;;;;;9.35;6.25;;;25.10;81.00;;;;;;4941618;29;20424;-79
2022/07/24 00:47:01;;;;;;;17.45;6.47;;;25.20;81.40;;;;;;4911640;29;20063;-79
2022/07/24 00:49:29;;;;;;;14.70;5.85;;;25.00;81.10;;;;;;4936179;29;20529;-79
2022/07/24 00:51:57;;;;;;;13.90;7.40;;;25.00;80.40;;;;;;4936525;29;20412;-78
2022/07/24 00:54:24;;;;;;;15.60;8.40;;;25.10;82.00;;;;;;4953129;29;20050;-80
2022/07/24 00:56:54;;;;;;;14.93;7.65;;;25.10;79.70;;;;;;4936242;29;20094;-80
2022/07/24 00:59:22;;;;;;;13.33;7.83;;;25.00;80.00;;;;;;4936025;29;20078;-80
2022/07/24 01:01:50;;;;;;;15.30;8.98;;;25.00;81.70;;;;;;4920061;29;20051;-82
2022/07/24 01:04:19;;;;;;;19.80;9.55;;;25.00;80.50;;;;;;4920224;29;20542;-80
2022/07/24 01:06:48;;;;;;;15.02;8.00;;;25.10;79.30;;;;;;4901441;29;20079;-80
2022/07/24 01:09:16;;;;;;;20.27;7.97;;;25.10;80.50;;;;;;4919326;29;20047;-83
2022/07/24 01:11:44;;;;;;;13.35;7.47;;;24.80;80.20;;;;;;4920471;29;20052;-81
2022/07/24 01:14:14;;;;;;;17.05;7.30;;;24.70;81.90;;;;;;4920039;29;20063;-79
2022/07/24 01:16:42;;;;;;;14.35;6.80;;;24.70;82.90;;;;;;4904672;29;20051;-80
2022/07/24 01:19:09;;;;;;;11.95;6.88;;;24.50;83.40;;;;;;4905057;29;20138;-78
2022/07/24 01:21:37;;;;;;;13.73;6.72;;;24.50;83.80;;;;;;4920127;29;20054;-82
2022/07/24 01:24:05;;;;;;;11.77;7.25;;;24.60;84.70;;;;;;4904417;29;20415;-81
2022/07/24 01:26:32;;;;;;;16.20;7.10;;;24.60;84.50;;;;;;4936913;29;20388;-79
2022/07/24 01:28:59;;;;;;;15.18;7.68;;;24.60;84.20;;;;;;4919762;29;20056;-81
2022/07/24 01:31:27;;;;;;;12.27;7.20;;;24.10;83.00;;;;;;4920052;29;20039;-79
2022/07/24 01:33:55;;;;;;;15.02;7.53;;;23.90;83.90;;;;;;4919581;29;20059;-81
2022/07/24 01:36:22;;;;;;;10.70;7.05;;;24.00;84.90;;;;;;4936669;29;20051;-81
2022/07/24 01:38:49;;;;;;;14.77;7.68;;;24.00;83.50;;;;;;4919462;29;20420;-82
2022/07/24 01:41:18;;;;;;;18.55;8.35;;;24.00;82.60;;;;;;4936892;29;20126;-83
2022/07/24 01:43:46;;;;;;;15.35;8.18;;;24.00;82.70;;;;;;4919847;29;20048;-82
2022/07/24 01:46:13;;;;;;;14.65;7.60;;;24.40;81.70;;;;;;4936762;29;20396;-80
2022/07/24 01:48:43;;;;;;;19.98;8.68;;;24.60;81.20;;;;;;4903629;29;20055;-81
2022/07/24 01:51:11;;;;;;;15.63;8.57;;;24.30;81.50;;;;;;4935662;29;20358;-79
2022/07/24 01:53:39;;;;;;;12.02;7.70;;;24.50;82.20;;;;;;4935846;29;20047;-79
2022/07/24 01:56:06;;;;;;;16.75;8.25;;;24.60;81.60;;;;;;4935634;29;20043;-79
2022/07/24 01:58:34;;;;;;;15.57;7.03;;;24.40;81.80;;;;;;4935963;29;20063;-81
2022/07/24 02:01:02;;;;;;;13.20;8.43;;;24.40;81.90;;;;;;4936234;29;20046;-80
2022/07/24 02:03:29;;;;;;;13.63;7.80;;;24.50;82.90;;;;;;4943718;29;20094;-82
2022/07/24 02:05:56;;;;;;;11.82;7.30;;;24.40;81.70;;;;;;4955386;29;20403;-81
2022/07/24 02:08:24;;;;;;;19.83;8.23;;;24.40;82.80;;;;;;4938191;29;20344;-81
2022/07/24 02:10:51;;;;;;;13.85;7.72;;;24.40;82.70;;;;;;4955345;29;20478;-81
2022/07/24 02:13:19;;;;;;;14.65;7.60;;;24.20;82.00;;;;;;4955689;29;20044;-81
2022/07/24 02:15:46;;;;;;;18.02;8.30;;;23.90;82.00;;;;;;4955083;29;20039;-81
2022/07/24 02:18:14;;;;;;;12.88;7.60;;;24.00;82.30;;;;;;4937697;29;20047;-81
2022/07/24 02:20:41;;;;;;;13.95;6.93;;;24.20;82.20;;;;;;4954113;28;20054;-81
2022/07/24 02:23:09;;;;;;;11.70;7.00;;;24.40;82.00;;;;;;4938131;29;20044;-80
2022/07/24 02:25:36;;;;;;;15.38;8.20;;;24.50;80.90;;;;;;4954242;29;20066;-81
2022/07/24 02:28:04;;;;;;;15.85;7.43;;;24.30;80.90;;;;;;4937280;29;20054;-78
2022/07/24 02:30:31;;;;;;;17.85;7.07;;;24.10;81.50;;;;;;4953791;29;20046;-79
2022/07/24 02:32:58;;;;;;;11.73;7.57;;;24.00;81.20;;;;;;4954185;29;20035;-80
2022/07/24 02:35:26;;;;;;;18.85;7.60;;;24.20;81.50;;;;;;4937302;29;20146;-81
2022/07/24 02:37:54;;;;;;;19.60;8.60;;;24.20;81.00;;;;;;4937555;29;20059;-81
2022/07/24 02:40:21;;;;;;;13.05;6.82;;;24.30;81.10;;;;;;4937589;29;20496;-81
2022/07/24 02:42:48;;;;;;;13.50;6.78;;;24.40;80.70;;;;;;4937565;29;20059;-80
2022/07/24 02:45:16;;;;;;;19.58;7.18;;;24.30;81.00;;;;;;4954619;29;20451;-79
2022/07/24 02:47:51;;;;;;;12.48;7.40;;;24.00;80.30;;;;;;4954510;29;20482;-79
2022/07/24 02:50:21;;;;;;;14.35;7.13;;;23.90;81.20;;;;;;4937036;29;20047;-80
2022/07/24 02:52:49;;;;;;;13.47;7.00;;;24.00;82.10;;;;;;4954590;29;20040;-80
2022/07/24 02:55:16;;;;;;;13.18;7.53;;;24.10;84.00;;;;;;4953997;29;20510;-81
2022/07/24 02:57:44;;;;;;;16.42;9.13;;;24.20;83.60;;;;;;4937191;29;20059;-80
2022/07/24 03:00:14;;;;;;;14.02;7.25;;;24.00;83.50;;;;;;4954107;29;20047;-81
2022/07/24 03:02:42;;;;;;;17.33;7.75;;;23.90;85.00;;;;;;4954209;29;20042;-80
2022/07/24 03:05:10;;;;;;;15.48;8.35;;;23.80;85.60;;;;;;4902929;29;20043;-80
2022/07/24 03:07:39;;;;;;;18.80;8.95;;;23.70;85.70;;;;;;4935193;29;20411;-79
2022/07/24 03:10:09;;;;;;;12.48;7.15;;;23.80;86.40;;;;;;4902323;29;20044;-79
2022/07/24 03:12:36;;;;;;;11.93;6.30;;;23.60;84.90;;;;;;4935459;29;20429;-81
2022/07/24 03:15:04;;;;;;;12.73;6.82;;;23.20;85.80;;;;;;4918104;29;20068;-81
2022/07/24 03:17:35;;;;;;;20.90;7.53;;;23.50;87.00;;;;;;4917587;29;20040;-78
2022/07/24 03:20:04;;;;;;;11.50;6.35;;;23.60;85.60;;;;;;4934159;29;20399;-81
2022/07/24 03:22:31;;;;;;;15.52;6.75;;;23.60;86.00;;;;;;4917447;29;20059;-80
2022/07/24 03:25:00;;;;;;;12.40;7.05;;;23.60;84.50;;;;;;4917152;29;20060;-80
2022/07/24 03:27:29;;;;;;;;;;;23.60;85.30;;;;;;4934460;29;20067;-79
2022/07/24 03:29:56;;;;;;;15.18;7.50;;;23.60;85.90;;;;;;4917511;29;19926;-80
2022/07/24 03:32:24;;;;;;;16.80;7.85;;;23.70;86.50;;;;;;4916827;28;20055;-81
2022/07/24 03:34:51;;;;;;;12.20;5.95;;;23.70;87.10;;;;;;4916999;29;20051;-79
2022/07/24 03:37:19;;;;;;;9.77;6.35;;;23.70;87.10;;;;;;4917033;29;20424;-80
2022/07/24 03:39:46;;;;;;;12.93;6.68;;;23.60;86.50;;;;;;4901659;29;20079;-80
2022/07/24 03:42:14;;;;;;;13.30;7.65;;;23.40;86.90;;;;;;4917474;29;20058;-81
2022/07/24 03:44:41;;;;;;;15.82;7.40;;;23.20;87.10;;;;;;4934442;29;20078;-81
2022/07/24 03:47:09;;;;;;;13.45;7.03;;;23.40;88.00;;;;;;4934597;29;20039;-81
2022/07/24 03:49:36;;;;;;;14.45;7.07;;;23.70;87.20;;;;;;4917533;29;20492;-81
2022/07/24 03:52:04;;;;;;;13.48;6.93;;;23.70;87.60;;;;;;4934292;29;20036;-82
2022/07/24 03:54:32;;;;;;;16.95;7.07;;;23.40;87.20;;;;;;4917685;29;20055;-80
2022/07/24 03:57:01;;;;;;;13.43;7.10;;;23.40;89.10;;;;;;4934336;29;20051;-81
2022/07/24 03:59:28;;;;;;;13.05;6.90;;;23.40;88.90;;;;;;4934770;29;20301;-81
2022/07/24 04:01:56;;;;;;;11.93;6.63;;;23.50;90.10;;;;;;4917388;29;20050;-80
2022/07/24 04:04:23;;;;;;;17.38;7.50;;;23.70;89.40;;;;;;4928177;29;20074;-80
2022/07/24 04:06:50;;;;;;;14.77;6.80;;;23.80;88.70;;;;;;4920741;29;20039;-81
2022/07/24 04:09:18;;;;;;;14.35;6.80;;;23.70;87.80;;;;;;4953431;29;20044;-80
2022/07/24 04:11:59;;;;;;;16.65;7.68;;;23.70;88.10;;;;;;4953586;29;20118;-82
2022/07/24 04:14:29;;;;;;;15.73;7.07;;;23.70;86.80;;;;;;4936285;29;20044;-81
2022/07/24 04:16:57;;;;;;;12.73;7.15;;;23.70;86.90;;;;;;4953128;29;20047;-82
2022/07/24 04:19:24;;;;;;;13.75;6.88;;;23.70;86.80;;;;;;4937056;29;20043;-80
2022/07/24 04:21:52;;;;;;;13.57;7.10;;;23.70;87.50;;;;;;4953081;29;20047;-79
2022/07/24 04:24:19;;;;;;;12.50;6.10;;;23.60;87.00;;;;;;4953134;29;20039;-80
2022/07/24 04:26:46;;;;;;;11.40;6.55;;;23.80;86.00;;;;;;4936367;29;20039;-80
2022/07/24 04:29:14;;;;;;;11.52;5.88;;;23.80;85.90;;;;;;4953338;29;20078;-80
2022/07/24 04:31:48;;;;;;;16.15;6.72;;;23.90;85.80;;;;;;4953073;29;20051;-80
2022/07/24 04:34:16;;;;;;;9.35;5.57;;;23.80;87.70;;;;;;4953367;29;20384;-80
2022/07/24 04:36:43;;;;;;;10.55;6.45;;;23.70;90.00;;;;;;4936162;29;20055;-79
2022/07/24 04:39:11;;;;;;;11.75;7.13;;;23.90;88.30;;;;;;4936470;29;20070;-78
2022/07/24 04:41:40;;;;;;;16.65;7.15;;;24.00;88.40;;;;;;4953243;28;20039;-79
2022/07/24 04:44:08;;;;;;;11.77;7.47;;;24.00;89.50;;;;;;4955824;29;20059;-79
2022/07/24 04:46:35;;;;;;;14.13;8.27;;;24.00;88.30;;;;;;4939532;29;20881;-80
2022/07/24 04:49:03;;;;;;;16.05;7.38;;;24.00;87.80;;;;;;4940164;29;20043;-78
2022/07/24 04:51:31;;;;;;;12.30;7.22;;;24.00;88.20;;;;;;4956374;29;20047;-78
2022/07/24 04:53:58;;;;;;;15.48;6.55;;;24.10;89.30;;;;;;4956966;29;20044;-81
2022/07/24 04:56:30;;;;;;;29.23;22.08;;;24.10;87.60;;;;;;4947023;29;20040;-81
2022/07/24 04:58:57;;;;;;;65.82;36.60;;;24.00;86.30;;;;;;4924851;29;20040;-84
2022/07/24 05:01:25;;;;;;;51.28;37.03;;;24.10;85.00;;;;;;4928483;29;20051;-85
2022/07/24 05:03:53;;;;;;;33.20;18.50;;;24.10;83.70;;;;;;4912902;29;20056;-88
2022/07/24 05:06:20;;;;;;;20.05;12.65;;;24.20;83.30;;;;;;4931151;29;20047;-85
2022/07/24 05:08:52;;;;;;;13.60;8.45;;;24.20;82.50;;;;;;4929991;29;20377;-85
2022/07/24 05:11:19;;;;;;;17.08;8.27;;;24.10;82.60;;;;;;4911833;29;20043;-87
2022/07/24 05:13:47;;;;;;;15.52;8.32;;;24.10;82.30;;;;;;4929819;29;20051;-85
2022/07/24 05:16:14;;;;;;;15.65;7.78;;;24.10;83.00;;;;;;4926181;29;20048;-84
2022/07/24 05:18:49;;;;;;;13.07;7.95;;;24.20;82.30;;;;;;4936113;29;20043;-83
2022/07/24 05:21:17;;;;;;;13.00;6.93;;;24.00;83.50;;;;;;4927118;29;20051;-81
2022/07/24 05:23:44;;;;;;;15.57;6.95;;;23.90;85.30;;;;;;4925377;29;20066;-84
2022/07/24 05:26:12;;;;;;;11.82;6.93;;;23.70;85.50;;;;;;4939576;29;20054;-84
2022/07/24 05:28:40;;;;;;;10.90;6.25;;;23.80;87.20;;;;;;4956420;29;20043;-85
2022/07/24 05:31:08;;;;;;;14.95;6.63;;;24.10;86.50;;;;;;4926917;29;20050;-86
2022/07/24 05:33:36;;;;;;;16.63;7.45;;;24.10;85.90;;;;;;4904637;29;20071;-86
2022/07/24 05:36:04;;;;;;;14.32;8.57;;;24.00;86.40;;;;;;4919608;29;20059;-86
2022/07/24 05:38:32;;;;;;;14.88;8.23;;;24.20;86.00;;;;;;4920648;29;20044;-85
2022/07/24 05:41:02;;;;;;;16.55;7.88;;;24.10;86.10;;;;;;4904447;29;20058;-87
2022/07/24 05:43:30;;;;;;;;;;;24.50;85.70;;;;;;4937527;29;20043;-86
2022/07/24 05:45:58;;;;;;;14.18;7.10;;;24.70;84.80;;;;;;4904795;29;19922;-86
2022/07/24 05:48:25;;;;;;;11.68;6.90;;;24.60;84.80;;;;;;4920158;29;20062;-85
2022/07/24 05:50:52;;;;;;;16.08;9.00;;;24.60;85.30;;;;;;4919645;29;20051;-83
2022/07/24 05:53:20;;;;;;;46.25;33.00;;;24.50;84.80;;;;;;4919904;29;20040;-83
2022/07/24 05:55:48;;;;;;;85.25;59.35;;;24.70;84.80;;;;;;4936676;29;20054;-81
2022/07/24 05:58:16;;;;;;;22.60;14.55;;;24.80;83.70;;;;;;4919932;29;20416;-82
2022/07/24 06:00:44;;;;;;;69.90;46.03;;;24.90;84.10;;;;;;4936757;29;20040;-84
2022/07/24 06:03:12;;;;;;;57.72;41.25;;;24.90;83.70;;;;;;4912202;29;20075;-85
2022/07/24 06:05:40;;;;;;;19.52;11.88;;;24.90;83.80;;;;;;4923100;29;20053;-85
2022/07/24 06:08:08;;;;;;;18.90;10.30;;;24.90;83.80;;;;;;4922945;29;20047;-81
2022/07/24 06:10:36;;;;;;;17.33;10.95;;;25.00;83.20;;;;;;4938214;29;20039;-84
2022/07/24 06:13:03;;;;;;;397.15;369.42;;;25.10;83.30;;;;;;4955668;29;20071;-84
2022/07/24 06:15:31;;;;;;;22.50;11.75;;;25.30;83.20;;;;;;4923210;29;20380;-82
2022/07/24 06:18:04;;;;;;;18.50;11.13;;;25.30;82.10;;;;;;4955451;29;20062;-82
2022/07/24 06:20:32;;;;;;;19.27;10.77;;;25.30;81.60;;;;;;4923030;29;20052;-84
2022/07/24 06:22:59;;;;;;;18.23;11.10;;;25.40;83.10;;;;;;4955497;28;20395;-84
2022/07/24 06:25:27;;;;;;;17.17;9.60;;;25.40;82.70;;;;;;4937929;29;20065;-85
2022/07/24 06:27:57;;;;;;;16.98;9.68;;;25.60;81.90;;;;;;4938521;29;20043;-81
2022/07/24 06:30:26;;;;;;;19.45;8.82;;;25.70;83.10;;;;;;4922324;29;20106;-85
2022/07/24 06:32:58;;;;;;;19.38;10.10;;;25.60;83.30;;;;;;4938499;29;20098;-85
2022/07/24 06:35:27;;;;;;;19.50;10.98;;;25.70;81.90;;;;;;4954862;29;20066;-85
2022/07/24 06:37:56;;;;;;;26.77;10.68;;;25.80;82.00;;;;;;4955162;29;20043;-84
2022/07/24 06:40:23;;;;;;;20.75;11.30;;;25.80;81.20;;;;;;4938390;29;20051;-86
2022/07/24 06:42:51;;;;;;;18.45;10.32;;;25.90;81.60;;;;;;4955216;29;20098;-85
2022/07/24 06:45:19;;;;;;;20.55;10.48;;;25.80;80.40;;;;;;4955434;29;20408;-84
2022/07/24 06:47:46;;;;;;;22.85;11.70;;;25.80;80.90;;;;;;4955506;29;20058;-86
2022/07/24 06:50:43;;;;;;;19.65;10.63;;;25.90;82.80;;;;;;4922640;29;20062;-85
2022/07/24 06:53:37;;;;;;;18.83;9.70;;;25.90;82.00;;;;;;4927466;29;20058;-84
2022/07/24 06:56:05;;;;;;;18.70;9.57;;;26.30;84.50;;;;;;4912184;29;20051;-84
2022/07/24 06:58:32;;;;;;;24.08;9.70;;;26.20;80.50;;;;;;4955201;29;20035;-84
2022/07/24 07:01:09;;;;;;;14.95;8.40;;;26.10;79.70;;;;;;4923201;29;20066;-87
2022/07/24 07:03:37;;;;;;;20.42;10.70;;;26.10;80.50;;;;;;4927690;29;20052;-82
2022/07/24 07:06:04;;;;;;;59.00;36.63;;;26.20;79.60;;;;;;4917697;29;20063;-83
2022/07/24 07:08:32;;;;;;;89.88;67.25;;;26.30;79.20;;;;;;4918481;29;20058;-82
2022/07/24 07:11:00;;;;;;;30.08;18.65;;;26.50;78.70;;;;;;4935296;29;20044;-84
2022/07/24 07:13:28;;;;;;;22.23;9.52;;;26.50;78.90;;;;;;4918928;29;20757;-84
2022/07/24 07:15:55;;;;;;;21.98;11.88;;;26.40;80.00;;;;;;4902849;29;20051;-86
2022/07/24 07:18:23;;;;;;;21.60;10.52;;;26.50;79.40;;;;;;4918442;29;20043;-82
2022/07/24 07:20:58;;;;;;;18.95;10.45;;;26.60;77.90;;;;;;4902864;29;20407;-82
2022/07/24 07:23:28;;;;;;;17.60;10.10;;;26.60;78.60;;;;;;4918323;29;20055;-82
2022/07/24 07:25:57;;;;;;;18.58;10.38;;;26.60;77.50;;;;;;4935412;29;20043;-85
2022/07/24 07:28:25;;;;;;;18.88;11.05;;;26.80;77.10;;;;;;4918531;29;20059;-83
2022/07/24 07:30:52;;;;;;;21.15;9.60;;;26.90;77.80;;;;;;4935050;29;20048;-81
2022/07/24 07:33:20;;;;;;;20.25;10.07;;;27.00;77.50;;;;;;4935293;29;20103;-84
2022/07/24 07:35:47;;;;;;;18.08;9.98;;;27.00;76.40;;;;;;4902354;29;20048;-83
2022/07/24 07:38:15;;;;;;;15.30;9.27;;;27.00;77.00;;;;;;4935339;29;20130;-83
2022/07/24 07:40:52;;;;;;;16.90;9.32;;;27.10;76.90;;;;;;4935129;29;20044;-83
2022/07/24 07:43:19;;;;;;;;;;;27.00;75.80;;;;;;4903017;29;20052;-83
2022/07/24 07:45:55;;;;;;;12.13;8.50;;;27.20;75.50;;;;;;4917635;29;19923;-83
2022/07/24 07:48:23;;;;;;;16.92;9.43;;;27.30;75.30;;;;;;4918111;29;20127;-83
2022/07/24 07:50:50;;;;;;;17.98;8.73;;;27.40;76.30;;;;;;4917805;29;20047;-85
2022/07/24 07:53:43;;;;;;;14.95;9.00;;;27.60;75.90;;;;;;4934637;29;20063;-84
2022/07/24 07:56:11;;;;;;;14.98;8.90;;;27.70;74.80;;;;;;4901954;29;20047;-86
2022/07/24 07:58:38;;;;;;;15.38;9.32;;;27.70;75.30;;;;;;4934595;29;20393;-85
2022/07/24 08:01:15;;;;;;;15.05;9.55;;;27.80;75.40;;;;;;4917530;29;20393;-84
2022/07/24 08:03:46;;;;;;;15.50;9.63;;;27.70;75.20;;;;;;4911182;29;20043;-84
2022/07/24 08:06:39;;;;;;;20.88;10.13;;;27.70;74.50;;;;;;4953864;29;20047;-85
2022/07/24 08:09:07;;;;;;;15.40;8.90;;;27.70;75.20;;;;;;4937212;29;20058;-85
2022/07/24 08:11:35;;;;;;;31.92;22.92;;;27.80;76.00;;;;;;4953178;29;20122;-83
2022/07/24 08:14:03;;;;;;;26.10;18.02;;;28.00;75.20;;;;;;4937038;29;20498;-81
2022/07/24 08:16:30;;;;;;;29.77;21.38;;;28.10;76.40;;;;;;4953713;28;20039;-84
2022/07/24 08:19:07;;;;;;;18.60;11.48;;;28.10;75.60;;;;;;4939708;29;20051;-84
2022/07/24 08:21:37;;;;;;;16.45;9.32;;;28.10;73.50;;;;;;4958307;29;20047;-86
2022/07/24 08:24:06;;;;;;;17.98;8.57;;;28.10;74.00;;;;;;4941477;29;20456;-86
2022/07/24 08:26:38;;;;;;;16.00;9.23;;;28.30;72.20;;;;;;4940992;29;20039;-85
2022/07/24 08:29:05;;;;;;;17.33;8.50;;;28.30;72.60;;;;;;4941495;29;20055;-86
2022/07/24 08:31:35;;;;;;;14.82;8.65;;;28.40;72.20;;;;;;4924310;29;20043;-85
2022/07/24 08:34:09;;;;;;;12.98;8.25;;;28.40;73.00;;;;;;4956443;29;20063;-86
2022/07/24 08:37:02;;;;;;;16.80;9.25;;;28.40;73.10;;;;;;4956748;29;20058;-86
2022/07/24 08:39:29;;;;;;;15.57;7.88;;;28.50;72.20;;;;;;4939685;29;20043;-87
2022/07/24 08:42:11;;;;;;;14.45;7.55;;;28.70;72.10;;;;;;4954852;29;20057;-86
2022/07/24 08:44:39;;;;;;;15.85;8.73;;;28.80;72.90;;;;;;4923670;29;20066;-86
2022/07/24 08:47:09;;;;;;;15.15;7.80;;;28.90;72.30;;;;;;4925139;29;20397;-86
2022/07/24 08:49:38;;;;;;;12.15;8.20;;;29.00;71.50;;;;;;4941156;29;20070;-86
2022/07/24 08:52:08;;;;;;;13.65;7.55;;;29.00;71.20;;;;;;4958035;29;20074;-86
2022/07/24 08:54:36;;;;;;;14.32;8.32;;;29.00;71.60;;;;;;4925209;29;20051;-86
2022/07/24 08:57:04;;;;;;;13.05;7.72;;;29.00;71.10;;;;;;4957678;29;20047;-87
2022/07/24 08:59:32;;;;;;;13.35;8.18;;;29.10;70.70;;;;;;4957501;29;20039;-85
2022/07/24 09:02:00;;;;;;;15.65;8.35;;;29.30;72.20;;;;;;4920183;29;20066;-84
2022/07/24 09:05:19;;;;;;;14.48;7.88;;;29.40;71.70;;;;;;4934346;29;20046;-84
2022/07/24 09:08:06;;;;;;;15.45;8.30;;;29.50;71.00;;;;;;4921812;29;20066;-85
2022/07/24 09:10:33;;;;;;;14.52;8.45;;;29.60;70.50;;;;;;4937520;29;20051;-83
2022/07/24 09:16:39;;;;;;;12.77;8.20;;;29.80;70.10;;;;;;4922347;29;20062;-91
2022/07/24 09:19:10;;;;;;;14.52;8.50;;;29.90;68.90;;;;;;4905318;29;20138;-84
2022/07/24 09:22:30;;;;;;;14.45;8.07;;;30.10;69.30;;;;;;4936657;29;20104;-92
2022/07/24 09:25:14;;;;;;;16.67;8.82;;;30.20;68.60;;;;;;4929843;29;20047;-87
2022/07/24 09:28:03;;;;;;;12.57;8.27;;;30.70;68.30;;;;;;4912742;23;20134;-85
2022/07/24 09:30:41;;;;;;;11.18;7.30;;;30.90;68.40;;;;;;4885170;29;20044;-80
2022/07/24 09:33:11;;;;;;;11.70;8.45;;;30.90;67.30;;;;;;4889549;29;20052;-81
2022/07/24 09:35:41;;;;;;;19.73;13.90;;;30.90;66.90;;;;;;4897892;29;20143;-83
2022/07/24 09:38:17;;;;;;;24.35;14.60;;;31.00;67.70;;;;;;4918193;29;20055;-84
2022/07/24 09:40:54;;;;;;;25.83;20.67;;;31.10;67.90;;;;;;4917865;29;20055;-83
2022/07/24 09:43:58;;;;;;;15.80;10.52;;;31.30;67.80;;;;;;4896643;29;20056;-82
2022/07/24 09:46:26;;;;;;;15.80;9.25;;;31.50;67.50;;;;;;4888643;29;20052;-80
2022/07/24 09:48:57;;;;;;;13.98;7.70;;;31.80;67.70;;;;;;4908225;29;20040;-82
2022/07/24 09:51:28;;;;;;;13.68;8.07;;;31.80;66.70;;;;;;4906975;29;20075;-81
2022/07/24 09:53:59;;;;;;;12.95;8.23;;;31.90;68.40;;;;;;4893759;29;20063;-82
2022/07/24 09:56:27;;;;;;;14.65;7.97;;;32.20;66.60;;;;;;4916150;29;20058;-82
2022/07/24 09:58:59;;;;;;;15.07;8.98;;;32.40;65.70;;;;;;4892020;29;20052;-80
2022/07/24 10:01:28;;;;;;;12.73;7.68;;;32.50;66.10;;;;;;4915613;29;20040;-78
2022/07/24 10:03:58;;;;;;;13.88;8.77;;;32.50;64.40;;;;;;4900275;29;20048;-80
2022/07/24 10:06:26;;;;;;;13.52;6.97;;;32.70;64.20;;;;;;4915538;29;20047;-76
2022/07/24 10:09:23;;;;;;;12.30;7.75;;;32.90;63.00;;;;;;4900553;29;20052;-81
2022/07/24 10:11:52;;;;;;;13.68;7.85;;;32.80;62.40;;;;;;4884688;29;20064;-80
2022/07/24 10:14:20;;;;;;;11.85;7.88;;;33.00;62.90;;;;;;4885002;29;20044;-82
2022/07/24 10:17:05;;;;;;;13.30;9.20;;;32.90;63.20;;;;;;4916966;29;20055;-79
2022/07/24 10:19:51;;;;;;;42.88;28.48;;;33.10;62.20;;;;;;4907335;29;20412;-81
2022/07/24 10:22:20;;;;;;;71.20;53.90;;;33.40;60.90;;;;;;4881707;29;20191;-81
2022/07/24 10:24:55;;;;;;;29.63;20.98;;;33.40;60.30;;;;;;4903020;29;20047;-79
2022/07/24 10:27:22;;;;;;;51.65;38.35;;;33.60;61.20;;;;;;4896701;29;20061;-80
2022/07/24 10:29:53;;;;;;;27.67;20.45;;;33.60;61.10;;;;;;4866039;29;20056;-80
2022/07/24 10:32:22;;;;;;;12.77;9.00;;;33.30;60.40;;;;;;4881739;29;20124;-80
2022/07/24 10:35:17;;;;;;;16.75;7.35;;;33.10;59.60;;;;;;4881495;29;20396;-80
2022/07/24 10:38:19;;;;;;;10.02;7.13;;;33.40;59.00;;;;;;4897755;29;20064;-80
2022/07/24 10:40:54;;;;;;;13.02;8.88;;;33.90;59.30;;;;;;4865279;29;20051;-80
2022/07/24 10:43:22;;;;;;;34.28;26.80;;;33.70;58.80;;;;;;4898703;29;20049;-81
2022/07/24 10:45:58;;;;;;;148.75;123.05;;;34.10;59.40;;;;;;4885046;29;20503;-84
2022/07/24 10:48:26;;;;;;;27.10;21.25;;;34.40;58.10;;;;;;4916638;29;20060;-80
2022/07/24 10:50:57;;;;;;;10.60;6.97;;;34.20;57.40;;;;;;4914940;29;20449;-79
2022/07/24 10:53:35;;;;;;;9.20;5.88;;;34.20;56.70;;;;;;4916674;29;20151;-81
2022/07/24 10:56:20;;;;;;;12.80;7.07;;;34.00;57.40;;;;;;4916530;29;20560;-78
2022/07/24 10:59:03;;;;;;;10.07;6.00;;;33.90;57.30;;;;;;4900228;29;20048;-82
2022/07/24 11:01:44;;;;;;;10.38;5.50;;;33.90;58.60;;;;;;4899464;29;20048;-81
2022/07/24 11:04:22;;;;;;;14.25;6.22;;;33.90;58.00;;;;;;4908357;29;20067;-79
2022/07/24 11:07:09;;;;;;;17.13;6.55;;;34.00;57.70;;;;;;4865047;29;20049;-78
2022/07/24 11:10:00;;;;;;;11.23;6.25;;;34.50;56.90;;;;;;4897292;29;20420;-80
2022/07/24 11:12:29;;;;;;;12.43;6.28;;;34.80;56.00;;;;;;4897568;29;20052;-80
2022/07/24 11:17:52;;;;;;;12.38;7.75;;;35.10;55.40;;;;;;4897279;29;20386;-82
2022/07/24 11:20:21;;;;;;;12.55;7.55;;;34.80;56.90;;;;;;4897603;29;20040;-84
2022/07/24 11:22:52;;;;;;;12.75;7.47;;;35.10;56.60;;;;;;4897322;29;20088;-83
2022/07/24 11:25:26;;;;;;;17.25;8.60;;;35.30;56.80;;;;;;4880232;29;20409;-82
2022/07/24 11:28:06;;;;;;;13.18;8.40;;;35.60;55.60;;;;;;4864720;29;20065;-81
2022/07/24 11:30:40;;;;;;;13.38;7.57;;;35.90;56.00;;;;;;4879982;29;20063;-81
2022/07/24 11:33:10;;;;;;;12.90;8.07;;;35.70;55.20;;;;;;4865017;29;20053;-83
2022/07/24 11:35:38;;;;;;;11.25;7.40;;;35.80;55.90;;;;;;4880632;29;20048;-80
2022/07/24 11:38:07;;;;;;;11.20;6.88;;;36.20;55.20;;;;;;4915439;29;20055;-81
2022/07/24 11:40:35;;;;;;;13.45;9.75;;;35.90;54.10;;;;;;4892357;29;20058;-78
2022/07/24 11:43:05;;;;;;;42.65;32.60;;;36.10;55.20;;;;;;4897096;29;20051;-79
2022/07/24 11:45:38;;;;;;;54.05;40.03;;;36.30;54.20;;;;;;4915772;29;20048;-81
2022/07/24 11:48:06;;;;;;;19.15;14.15;;;36.50;56.50;;;;;;4906206;29;20080;-80
2022/07/24 11:50:34;;;;;;;13.00;10.40;;;36.60;54.70;;;;;;4903380;29;20071;-79
2022/07/24 11:53:07;;;;;;;17.35;9.90;;;36.50;54.60;;;;;;4887852;29;20401;-81
2022/07/24 11:55:34;;;;;;;14.73;8.98;;;36.60;55.00;;;;;;4888727;29;20052;-82
2022/07/24 11:58:02;;;;;;;11.95;8.02;;;36.80;54.20;;;;;;4872114;29;20051;-80
2022/07/24 12:00:51;;;;;;;16.63;7.70;;;36.90;54.50;;;;;;4888715;29;20048;-81
2022/07/24 12:03:20;;;;;;;10.57;7.03;;;36.70;55.30;;;;;;4891303;29;20044;-85
2022/07/24 12:05:47;;;;;;;12.18;6.95;;;36.60;55.00;;;;;;4882872;29;20540;-80
2022/07/24 12:08:24;;;;;;;10.63;7.25;;;36.50;54.00;;;;;;4882883;29;20063;-81
2022/07/24 12:10:56;;;;;;;13.50;6.95;;;35.80;54.80;;;;;;4898495;29;20386;-79
2022/07/24 12:13:24;;;;;;;16.52;7.30;;;36.40;55.50;;;;;;4915100;29;20051;-77
2022/07/24 12:15:52;;;;;;;12.63;7.20;;;36.70;54.70;;;;;;4882830;29;20401;-79
2022/07/24 12:18:19;;;;;;;9.70;6.75;;;36.60;53.60;;;;;;4898627;29;20044;-83
2022/07/24 12:20:59;;;;;;;15.00;7.88;;;36.50;54.20;;;;;;4898554;29;20048;-86
2022/07/24 12:23:28;;;;;;;10.60;7.40;;;36.90;54.70;;;;;;4898619;29;20047;-84
2022/07/24 12:25:56;;;;;;;16.88;8.02;;;37.20;54.30;;;;;;4915341;29;20048;-83
2022/07/24 12:28:24;;;;;;;13.93;10.10;;;37.20;53.70;;;;;;4898168;29;20059;-84
2022/07/24 12:30:53;;;;;;;14.23;8.30;;;37.00;53.70;;;;;;4893484;29;20505;-80
2022/07/24 12:33:24;;;;;;;37.53;31.13;;;37.00;53.80;;;;;;4887737;29;20045;-80
2022/07/24 12:36:15;;;;;;;48.85;38.67;;;36.70;53.80;;;;;;4904834;29;20044;-81
2022/07/24 12:38:54;;;;;;;21.30;15.93;;;36.70;53.50;;;;;;4898507;29;20113;-76
2022/07/24 12:41:25;;;;;;;16.10;10.48;;;37.00;53.80;;;;;;4901521;29;20052;-81
2022/07/24 12:44:04;;;;;;;10.57;7.18;;;37.20;53.70;;;;;;4871662;29;20040;-83
2022/07/24 12:46:35;;;;;;;11.70;6.95;;;37.20;53.60;;;;;;4879333;29;20059;-85
2022/07/24 12:49:07;;;;;;;11.88;9.63;;;37.30;52.00;;;;;;4880010;29;20051;-83
2022/07/24 12:51:55;;;;;;;17.85;13.23;;;37.40;50.60;;;;;;4910114;29;20483;-76
2022/07/24 12:54:34;;;;;;;17.90;11.73;;;37.20;49.50;;;;;;4883366;29;20040;-86
2022/07/24 12:57:10;;;;;;;17.42;15.35;;;36.90;50.30;;;;;;4883721;29;20535;-85
2022/07/24 12:59:48;;;;;;;18.27;13.43;;;37.20;50.80;;;;;;4915687;29;20112;-81